sensor_id;sensor_type;location;lat;lon;timestamp;temperature;humidity
21489;DHT22;10906;45.194;5.684;2023-10-09T05:01:38;14.90;94.60
21489;DHT22;10906;45.194;5.684;2023-10-09T05:04:27;14.80;95.00
21489;DHT22;10906;45.194;5.684;2023-10-09T05:07:24;14.70;95.20
21489;DHT22;10906;45.194;5.684;2023-10-09T05:10:09;14.70;95.20
21489;DHT22;10906;45.194;5.684;2023-10-09T05:13:00;14.70;95.40
21489;DHT22;10906;45.194;5.684;2023-10-09T05:15:46;14.60;95.50
21489;DHT22;10906;45.194;5.684;2023-10-09T05:18:36;14.60;95.90
21489;DHT22;10906;45.194;5.684;2023-10-09T05:21:31;14.70;96.20
21489;DHT22;10906;45.194;5.684;2023-10-09T05:24:16;14.60;95.70
21489;DHT22;10906;45.194;5.684;2023-10-09T05:27:05;14.60;95.70
21489;DHT22;10906;45.194;5.684;2023-10-09T05:30:13;14.50;95.80
21489;DHT22;10906;45.194;5.684;2023-10-09T05:33:08;14.50;95.90
21489;DHT22;10906;45.194;5.684;2023-10-09T05:36:11;14.50;95.80
21489;DHT22;10906;45.194;5.684;2023-10-09T05:39:15;14.40;96.20
21489;DHT22;10906;45.194;5.684;2023-10-09T05:42:22;14.40;95.80
21489;DHT22;10906;45.194;5.684;2023-10-09T05:45:13;14.40;95.90
21489;DHT22;10906;45.194;5.684;2023-10-09T05:48:06;14.40;95.90
21489;DHT22;10906;45.194;5.684;2023-10-09T05:51:13;14.40;95.90
21489;DHT22;10906;45.194;5.684;2023-10-09T05:54:17;14.40;95.90
21489;DHT22;10906;45.194;5.684;2023-10-09T05:57:27;14.40;96.00
21489;DHT22;10906;45.194;5.684;2023-10-09T06:00:30;14.40;96.00
21489;DHT22;10906;45.194;5.684;2023-10-09T06:03:33;14.30;95.90
21489;DHT22;10906;45.194;5.684;2023-10-09T06:06:32;14.30;96.10
21489;DHT22;10906;45.194;5.684;2023-10-09T06:09:17;14.40;96.30
21489;DHT22;10906;45.194;5.684;2023-10-09T06:12:01;14.30;96.20
21489;DHT22;10906;45.194;5.684;2023-10-09T06:15:04;14.30;96.50
21489;DHT22;10906;45.194;5.684;2023-10-09T06:18:03;14.40;96.60
21489;DHT22;10906;45.194;5.684;2023-10-09T06:21:14;14.30;95.90
21489;DHT22;10906;45.194;5.684;2023-10-09T06:24:23;14.30;96.30
21489;DHT22;10906;45.194;5.684;2023-10-09T06:27:08;14.30;96.70
21489;DHT22;10906;45.194;5.684;2023-10-09T06:29:55;14.30;96.50
21489;DHT22;10906;45.194;5.684;2023-10-09T06:32:58;14.30;96.50
21489;DHT22;10906;45.194;5.684;2023-10-09T06:35:48;14.30;96.20
21489;DHT22;10906;45.194;5.684;2023-10-09T06:38:52;14.30;96.30
21489;DHT22;10906;45.194;5.684;2023-10-09T06:41:56;14.40;96.70
21489;DHT22;10906;45.194;5.684;2023-10-09T06:44:53;14.40;96.30
21489;DHT22;10906;45.194;5.684;2023-10-09T06:47:37;14.40;96.20
21489;DHT22;10906;45.194;5.684;2023-10-09T06:50:39;14.40;96.60
21489;DHT22;10906;45.194;5.684;2023-10-09T06:53:55;14.60;96.40
21489;DHT22;10906;45.194;5.684;2023-10-09T06:56:39;14.60;96.00
21489;DHT22;10906;45.194;5.684;2023-10-09T06:59:23;14.60;96.00
21489;DHT22;10906;45.194;5.684;2023-10-09T07:02:08;14.70;96.10
21489;DHT22;10906;45.194;5.684;2023-10-09T07:04:52;14.80;96.20
21489;DHT22;10906;45.194;5.684;2023-10-09T07:07:38;14.80;96.30
21489;DHT22;10906;45.194;5.684;2023-10-09T07:10:34;14.90;96.10
21489;DHT22;10906;45.194;5.684;2023-10-09T07:13:23;14.90;96.20
21489;DHT22;10906;45.194;5.684;2023-10-09T07:16:09;15.00;96.00
21489;DHT22;10906;45.194;5.684;2023-10-09T07:19:12;15.00;95.70
21489;DHT22;10906;45.194;5.684;2023-10-09T07:22:25;15.20;95.80
21489;DHT22;10906;45.194;5.684;2023-10-09T07:25:23;15.30;95.50
21489;DHT22;10906;45.194;5.684;2023-10-09T07:28:26;15.40;95.50
21489;DHT22;10906;45.194;5.684;2023-10-09T07:31:17;15.50;95.20
21489;DHT22;10906;45.194;5.684;2023-10-09T07:34:08;15.70;95.40
21489;DHT22;10906;45.194;5.684;2023-10-09T07:37:12;15.80;95.20
21489;DHT22;10906;45.194;5.684;2023-10-09T07:40:02;15.90;94.90
21489;DHT22;10906;45.194;5.684;2023-10-09T07:42:51;16.00;94.70
21489;DHT22;10906;45.194;5.684;2023-10-09T07:45:40;16.20;94.90
21489;DHT22;10906;45.194;5.684;2023-10-09T07:48:33;16.30;94.80
21489;DHT22;10906;45.194;5.684;2023-10-09T07:51:32;16.50;94.60
21489;DHT22;10906;45.194;5.684;2023-10-09T07:54:16;16.60;95.00
21489;DHT22;10906;45.194;5.684;2023-10-09T07:57:16;16.70;94.20
21489;DHT22;10906;45.194;5.684;2023-10-09T08:00:00;16.90;94.00
21489;DHT22;10906;45.194;5.684;2023-10-09T08:03:07;17.00;93.70
21489;DHT22;10906;45.194;5.684;2023-10-09T08:06:07;17.20;93.50
21489;DHT22;10906;45.194;5.684;2023-10-09T08:09:12;17.40;93.40
21489;DHT22;10906;45.194;5.684;2023-10-09T08:11:56;17.60;93.10
21489;DHT22;10906;45.194;5.684;2023-10-09T08:15:18;17.80;92.60
21489;DHT22;10906;45.194;5.684;2023-10-09T08:18:03;18.00;92.30
21489;DHT22;10906;45.194;5.684;2023-10-09T08:20:47;18.20;92.00
21489;DHT22;10906;45.194;5.684;2023-10-09T08:23:40;18.40;92.00
21489;DHT22;10906;45.194;5.684;2023-10-09T08:26:33;18.50;91.50
21489;DHT22;10906;45.194;5.684;2023-10-09T08:29:31;18.70;91.90
21489;DHT22;10906;45.194;5.684;2023-10-09T08:32:18;18.80;91.00
21489;DHT22;10906;45.194;5.684;2023-10-09T08:35:03;19.10;91.50
21489;DHT22;10906;45.194;5.684;2023-10-09T08:37:50;19.30;90.60
21489;DHT22;10906;45.194;5.684;2023-10-09T08:40:35;19.50;90.70
21489;DHT22;10906;45.194;5.684;2023-10-09T08:43:23;19.70;91.20
21489;DHT22;10906;45.194;5.684;2023-10-09T08:46:07;19.90;91.30
21489;DHT22;10906;45.194;5.684;2023-10-09T08:48:51;20.10;91.60
21489;DHT22;10906;45.194;5.684;2023-10-09T08:51:35;20.20;91.50
21489;DHT22;10906;45.194;5.684;2023-10-09T08:54:19;20.40;90.90
21489;DHT22;10906;45.194;5.684;2023-10-09T08:57:03;20.60;90.30
21489;DHT22;10906;45.194;5.684;2023-10-09T08:59:53;20.80;90.90
21489;DHT22;10906;45.194;5.684;2023-10-09T09:02:37;21.00;90.10
21489;DHT22;10906;45.194;5.684;2023-10-09T09:05:22;21.10;89.50
21489;DHT22;10906;45.194;5.684;2023-10-09T09:08:20;21.30;89.50
21489;DHT22;10906;45.194;5.684;2023-10-09T09:11:10;21.50;90.20
21489;DHT22;10906;45.194;5.684;2023-10-09T09:14:07;21.70;90.00
21489;DHT22;10906;45.194;5.684;2023-10-09T09:17:03;21.80;88.20
21489;DHT22;10906;45.194;5.684;2023-10-09T09:19:48;22.00;89.00
21489;DHT22;10906;45.194;5.684;2023-10-09T09:22:35;22.20;89.60
21489;DHT22;10906;45.194;5.684;2023-10-09T09:25:42;22.40;89.60
21489;DHT22;10906;45.194;5.684;2023-10-09T09:28:28;22.50;86.50
21489;DHT22;10906;45.194;5.684;2023-10-09T09:31:22;22.70;86.50
21489;DHT22;10906;45.194;5.684;2023-10-09T09:34:07;22.80;86.70
21489;DHT22;10906;45.194;5.684;2023-10-09T09:37:01;23.00;89.40
21489;DHT22;10906;45.194;5.684;2023-10-09T09:39:48;23.10;87.10
21489;DHT22;10906;45.194;5.684;2023-10-09T09:42:33;23.30;86.20
21489;DHT22;10906;45.194;5.684;2023-10-09T09:45:18;23.40;87.40
21489;DHT22;10906;45.194;5.684;2023-10-09T09:48:07;23.60;86.10
21489;DHT22;10906;45.194;5.684;2023-10-09T09:50:54;23.90;87.70
21489;DHT22;10906;45.194;5.684;2023-10-09T09:53:38;23.90;85.90
21489;DHT22;10906;45.194;5.684;2023-10-09T09:56:24;24.10;85.70
21489;DHT22;10906;45.194;5.684;2023-10-09T09:59:09;24.20;87.10
21489;DHT22;10906;45.194;5.684;2023-10-09T10:02:00;24.30;86.20
21489;DHT22;10906;45.194;5.684;2023-10-09T10:04:51;24.50;85.50
21489;DHT22;10906;45.194;5.684;2023-10-09T10:07:36;24.50;85.00
21489;DHT22;10906;45.194;5.684;2023-10-09T10:10:35;24.70;88.60
21489;DHT22;10906;45.194;5.684;2023-10-09T10:16:24;24.80;84.70
21489;DHT22;10906;45.194;5.684;2023-10-09T10:19:08;24.90;86.10
21489;DHT22;10906;45.194;5.684;2023-10-09T10:21:52;25.10;84.10
21489;DHT22;10906;45.194;5.684;2023-10-09T10:27:36;25.30;84.60
21489;DHT22;10906;45.194;5.684;2023-10-09T10:30:45;25.40;83.60
21489;DHT22;10906;45.194;5.684;2023-10-09T10:36:43;25.60;81.30
21489;DHT22;10906;45.194;5.684;2023-10-09T10:39:28;25.80;84.60
21489;DHT22;10906;45.194;5.684;2023-10-09T10:42:29;25.90;82.30
21489;DHT22;10906;45.194;5.684;2023-10-09T10:45:20;26.00;83.90
21489;DHT22;10906;45.194;5.684;2023-10-09T10:48:20;26.00;83.40
21489;DHT22;10906;45.194;5.684;2023-10-09T10:51:21;26.10;81.20
21489;DHT22;10906;45.194;5.684;2023-10-09T10:54:07;26.20;84.20
21489;DHT22;10906;45.194;5.684;2023-10-09T10:57:14;26.20;83.00
21489;DHT22;10906;45.194;5.684;2023-10-09T11:00:10;26.10;80.50
21489;DHT22;10906;45.194;5.684;2023-10-09T11:03:20;26.10;81.50
21489;DHT22;10906;45.194;5.684;2023-10-09T11:06:13;26.00;80.80
21489;DHT22;10906;45.194;5.684;2023-10-09T11:08:59;26.00;82.30
21489;DHT22;10906;45.194;5.684;2023-10-09T11:11:52;26.00;79.80
21489;DHT22;10906;45.194;5.684;2023-10-09T11:14:56;26.10;83.60
21489;DHT22;10906;45.194;5.684;2023-10-09T11:17:57;26.10;81.70
21489;DHT22;10906;45.194;5.684;2023-10-09T11:20:52;26.20;80.00
21489;DHT22;10906;45.194;5.684;2023-10-09T11:23:43;26.20;80.80
21489;DHT22;10906;45.194;5.684;2023-10-09T11:26:50;26.20;80.60
21489;DHT22;10906;45.194;5.684;2023-10-09T11:29:47;26.20;78.80
21489;DHT22;10906;45.194;5.684;2023-10-09T11:32:32;26.10;79.10
21489;DHT22;10906;45.194;5.684;2023-10-09T11:35:19;26.00;81.70
21489;DHT22;10906;45.194;5.684;2023-10-09T11:38:18;25.90;80.40
21489;DHT22;10906;45.194;5.684;2023-10-09T11:41:15;25.90;81.90
21489;DHT22;10906;45.194;5.684;2023-10-09T11:44:08;25.90;80.90
21489;DHT22;10906;45.194;5.684;2023-10-09T11:47:02;25.80;76.30
21489;DHT22;10906;45.194;5.684;2023-10-09T11:50:01;25.70;74.80
21489;DHT22;10906;45.194;5.684;2023-10-09T11:52:58;25.70;74.80
21489;DHT22;10906;45.194;5.684;2023-10-09T11:56:01;25.70;78.20
21489;DHT22;10906;45.194;5.684;2023-10-09T11:58:49;25.60;81.00
21489;DHT22;10906;45.194;5.684;2023-10-09T12:01:37;25.70;77.00
21489;DHT22;10906;45.194;5.684;2023-10-09T12:04:26;25.70;79.10
21489;DHT22;10906;45.194;5.684;2023-10-09T12:07:14;25.70;78.80
21489;DHT22;10906;45.194;5.684;2023-10-09T12:09:58;25.80;79.70
21489;DHT22;10906;45.194;5.684;2023-10-09T12:12:43;25.70;79.70
21489;DHT22;10906;45.194;5.684;2023-10-09T12:15:31;25.70;76.70
21489;DHT22;10906;45.194;5.684;2023-10-09T12:18:21;25.70;78.60
21489;DHT22;10906;45.194;5.684;2023-10-09T12:21:07;25.70;76.70
21489;DHT22;10906;45.194;5.684;2023-10-09T12:23:52;25.60;75.50
21489;DHT22;10906;45.194;5.684;2023-10-09T12:26:41;25.60;77.10
21489;DHT22;10906;45.194;5.684;2023-10-09T12:29:26;25.60;74.50
21489;DHT22;10906;45.194;5.684;2023-10-09T12:32:17;25.60;75.50
21489;DHT22;10906;45.194;5.684;2023-10-09T12:35:05;25.60;74.00
21489;DHT22;10906;45.194;5.684;2023-10-09T12:38:01;25.60;76.40
21489;DHT22;10906;45.194;5.684;2023-10-09T12:40:45;25.70;70.40
21489;DHT22;10906;45.194;5.684;2023-10-09T12:43:36;25.80;72.70
21489;DHT22;10906;45.194;5.684;2023-10-09T12:46:22;25.80;72.30
21489;DHT22;10906;45.194;5.684;2023-10-09T12:49:16;25.70;77.70
21489;DHT22;10906;45.194;5.684;2023-10-09T12:52:00;25.70;73.90
21489;DHT22;10906;45.194;5.684;2023-10-09T12:54:45;25.70;71.20
21489;DHT22;10906;45.194;5.684;2023-10-09T12:57:32;25.80;76.00
21489;DHT22;10906;45.194;5.684;2023-10-09T13:00:16;26.00;71.60
21489;DHT22;10906;45.194;5.684;2023-10-09T13:03:12;26.00;72.00
21489;DHT22;10906;45.194;5.684;2023-10-09T13:13:49;26.30;74.80
21489;DHT22;10906;45.194;5.684;2023-10-09T13:16:37;26.20;73.90
21489;DHT22;10906;45.194;5.684;2023-10-09T13:19:21;26.20;74.10
21489;DHT22;10906;45.194;5.684;2023-10-09T14:45:18;27.10;69.20
21489;DHT22;10906;45.194;5.684;2023-10-09T15:32:40;33.30;62.70
21489;DHT22;10906;45.194;5.684;2023-10-09T15:35:27;32.80;59.50
21489;DHT22;10906;45.194;5.684;2023-10-09T15:38:15;32.40;58.40
21489;DHT22;10906;45.194;5.684;2023-10-09T15:40:59;30.70;68.20
21489;DHT22;10906;45.194;5.684;2023-10-09T15:43:46;29.90;70.10
21489;DHT22;10906;45.194;5.684;2023-10-09T15:46:32;28.50;74.00
21489;DHT22;10906;45.194;5.684;2023-10-09T15:49:19;27.60;76.40
21489;DHT22;10906;45.194;5.684;2023-10-09T15:52:04;26.90;78.60
21489;DHT22;10906;45.194;5.684;2023-10-09T15:54:51;26.30;80.30
21489;DHT22;10906;45.194;5.684;2023-10-09T15:57:38;25.90;82.20
21489;DHT22;10906;45.194;5.684;2023-10-09T16:00:22;25.50;82.50
21489;DHT22;10906;45.194;5.684;2023-10-09T16:03:12;25.10;83.70
21489;DHT22;10906;45.194;5.684;2023-10-09T16:05:57;24.80;84.80
21489;DHT22;10906;45.194;5.684;2023-10-09T16:08:43;24.40;85.60
21489;DHT22;10906;45.194;5.684;2023-10-09T16:11:29;24.20;85.90
21489;DHT22;10906;45.194;5.684;2023-10-09T16:14:17;24.20;86.10
21489;DHT22;10906;45.194;5.684;2023-10-09T16:17:02;24.00;86.20
21489;DHT22;10906;45.194;5.684;2023-10-09T16:19:46;23.70;87.00
21489;DHT22;10906;45.194;5.684;2023-10-09T16:22:30;23.70;87.00
21489;DHT22;10906;45.194;5.684;2023-10-09T16:25:16;23.50;87.70
21489;DHT22;10906;45.194;5.684;2023-10-09T16:28:04;23.40;88.80
21489;DHT22;10906;45.194;5.684;2023-10-09T16:30:49;23.20;88.80
21489;DHT22;10906;45.194;5.684;2023-10-09T16:33:33;23.10;89.80
21489;DHT22;10906;45.194;5.684;2023-10-09T16:36:18;23.00;89.80
21489;DHT22;10906;45.194;5.684;2023-10-09T16:39:03;22.90;90.20
21489;DHT22;10906;45.194;5.684;2023-10-09T16:41:48;22.80;90.10
21489;DHT22;10906;45.194;5.684;2023-10-09T16:44:33;22.50;90.20
21489;DHT22;10906;45.194;5.684;2023-10-09T16:47:20;22.40;90.00
21489;DHT22;10906;45.194;5.684;2023-10-09T16:50:06;22.30;90.70
21489;DHT22;10906;45.194;5.684;2023-10-09T16:52:53;22.20;91.00
21489;DHT22;10906;45.194;5.684;2023-10-09T16:55:41;22.00;90.40
21489;DHT22;10906;45.194;5.684;2023-10-09T16:58:25;22.00;90.50
21489;DHT22;10906;45.194;5.684;2023-10-09T17:01:10;21.80;90.90
21489;DHT22;10906;45.194;5.684;2023-10-09T17:03:54;21.70;90.70
21489;DHT22;10906;45.194;5.684;2023-10-09T17:06:41;21.70;91.00
21489;DHT22;10906;45.194;5.684;2023-10-09T17:09:28;21.50;91.30
21489;DHT22;10906;45.194;5.684;2023-10-09T17:12:17;21.40;90.90
21489;DHT22;10906;45.194;5.684;2023-10-09T17:15:01;21.40;91.20
21489;DHT22;10906;45.194;5.684;2023-10-09T17:17:49;21.20;91.20
21489;DHT22;10906;45.194;5.684;2023-10-09T17:20:39;21.20;91.20
21489;DHT22;10906;45.194;5.684;2023-10-09T17:23:24;21.00;91.30
21489;DHT22;10906;45.194;5.684;2023-10-09T17:26:08;20.90;91.00
21489;DHT22;10906;45.194;5.684;2023-10-09T17:28:54;20.80;91.50
21489;DHT22;10906;45.194;5.684;2023-10-09T17:31:38;20.80;91.50
21489;DHT22;10906;45.194;5.684;2023-10-09T17:34:23;20.70;91.50
21489;DHT22;10906;45.194;5.684;2023-10-09T17:37:11;20.70;91.60
21489;DHT22;10906;45.194;5.684;2023-10-09T17:39:56;20.50;91.40
21489;DHT22;10906;45.194;5.684;2023-10-09T17:42:40;20.50;91.10
21489;DHT22;10906;45.194;5.684;2023-10-09T17:45:25;20.50;91.20
21489;DHT22;10906;45.194;5.684;2023-10-09T17:48:09;20.40;91.30
21489;DHT22;10906;45.194;5.684;2023-10-09T17:50:55;20.30;91.50
21489;DHT22;10906;45.194;5.684;2023-10-09T17:53:39;20.20;91.40
21489;DHT22;10906;45.194;5.684;2023-10-09T17:56:23;20.20;91.30
21489;DHT22;10906;45.194;5.684;2023-10-09T17:59:09;20.20;91.70
21489;DHT22;10906;45.194;5.684;2023-10-09T18:01:55;20.20;91.80
21489;DHT22;10906;45.194;5.684;2023-10-09T18:04:41;20.10;92.00
21489;DHT22;10906;45.194;5.684;2023-10-09T18:07:25;20.10;91.90
21489;DHT22;10906;45.194;5.684;2023-10-09T18:10:11;20.00;91.70
21489;DHT22;10906;45.194;5.684;2023-10-09T18:12:57;20.00;91.50
21489;DHT22;10906;45.194;5.684;2023-10-09T18:15:42;19.90;91.90
21489;DHT22;10906;45.194;5.684;2023-10-09T18:18:27;19.80;92.30
21489;DHT22;10906;45.194;5.684;2023-10-09T18:21:12;19.70;92.00
21489;DHT22;10906;45.194;5.684;2023-10-09T18:23:57;19.70;92.10
21489;DHT22;10906;45.194;5.684;2023-10-09T18:26:45;19.70;92.10
21489;DHT22;10906;45.194;5.684;2023-10-09T18:29:30;19.60;92.50
21489;DHT22;10906;45.194;5.684;2023-10-09T18:32:14;19.50;92.50
21489;DHT22;10906;45.194;5.684;2023-10-09T18:34:59;19.40;92.60
21489;DHT22;10906;45.194;5.684;2023-10-09T18:37:44;19.50;92.70
21489;DHT22;10906;45.194;5.684;2023-10-09T18:40:28;19.40;92.60
21489;DHT22;10906;45.194;5.684;2023-10-09T18:43:15;19.40;93.00
21489;DHT22;10906;45.194;5.684;2023-10-09T18:46:03;19.30;92.80
21489;DHT22;10906;45.194;5.684;2023-10-09T18:48:49;19.30;93.20
21489;DHT22;10906;45.194;5.684;2023-10-09T18:51:34;19.20;92.80
21489;DHT22;10906;45.194;5.684;2023-10-09T18:54:19;19.20;92.80
21489;DHT22;10906;45.194;5.684;2023-10-09T18:57:03;19.10;92.60
21489;DHT22;10906;45.194;5.684;2023-10-09T18:59:50;19.10;92.80
21489;DHT22;10906;45.194;5.684;2023-10-09T19:02:34;19.00;92.80
21489;DHT22;10906;45.194;5.684;2023-10-09T19:05:18;19.00;92.80
21489;DHT22;10906;45.194;5.684;2023-10-09T19:08:03;18.90;92.90
21489;DHT22;10906;45.194;5.684;2023-10-09T19:10:48;19.00;93.00
21489;DHT22;10906;45.194;5.684;2023-10-09T19:13:32;18.90;93.20
21489;DHT22;10906;45.194;5.684;2023-10-09T19:16:19;18.90;93.20
21489;DHT22;10906;45.194;5.684;2023-10-09T19:19:03;18.90;93.60
21489;DHT22;10906;45.194;5.684;2023-10-09T19:21:52;18.80;93.40
21489;DHT22;10906;45.194;5.684;2023-10-09T19:24:37;18.80;93.20
21489;DHT22;10906;45.194;5.684;2023-10-09T19:27:24;18.70;93.10
21489;DHT22;10906;45.194;5.684;2023-10-09T19:30:15;18.60;93.50
21489;DHT22;10906;45.194;5.684;2023-10-09T19:33:02;18.50;94.00
21489;DHT22;10906;45.194;5.684;2023-10-09T19:35:49;18.50;94.00
21489;DHT22;10906;45.194;5.684;2023-10-09T19:38:34;18.40;93.90
21489;DHT22;10906;45.194;5.684;2023-10-09T19:41:18;18.40;93.90
21489;DHT22;10906;45.194;5.684;2023-10-09T19:44:07;18.40;94.00
21489;DHT22;10906;45.194;5.684;2023-10-09T19:46:51;18.30;94.30
21489;DHT22;10906;45.194;5.684;2023-10-09T19:49:35;18.30;94.10
21489;DHT22;10906;45.194;5.684;2023-10-09T19:52:22;18.30;94.40
21489;DHT22;10906;45.194;5.684;2023-10-09T19:55:07;18.30;94.00
21489;DHT22;10906;45.194;5.684;2023-10-09T19:57:52;18.20;94.10
21489;DHT22;10906;45.194;5.684;2023-10-09T20:00:38;18.20;94.40
21489;DHT22;10906;45.194;5.684;2023-10-09T20:03:23;18.10;94.30
21489;DHT22;10906;45.194;5.684;2023-10-09T20:06:08;18.10;94.70
21489;DHT22;10906;45.194;5.684;2023-10-09T20:08:52;18.00;94.60
21489;DHT22;10906;45.194;5.684;2023-10-09T20:11:38;18.00;94.50
21489;DHT22;10906;45.194;5.684;2023-10-09T20:14:23;17.90;94.40
21489;DHT22;10906;45.194;5.684;2023-10-09T20:17:07;17.90;94.50
21489;DHT22;10906;45.194;5.684;2023-10-09T20:19:55;17.90;94.40
21489;DHT22;10906;45.194;5.684;2023-10-09T20:22:40;18.00;94.40
21489;DHT22;10906;45.194;5.684;2023-10-09T20:25:25;18.00;94.50
21489;DHT22;10906;45.194;5.684;2023-10-09T20:28:12;18.00;94.30
21489;DHT22;10906;45.194;5.684;2023-10-09T20:30:56;18.00;94.30
21489;DHT22;10906;45.194;5.684;2023-10-09T20:33:47;18.00;94.20
21489;DHT22;10906;45.194;5.684;2023-10-09T20:36:35;18.00;93.50
21489;DHT22;10906;45.194;5.684;2023-10-09T20:39:24;18.10;93.70
21489;DHT22;10906;45.194;5.684;2023-10-09T20:42:10;18.10;93.50
21489;DHT22;10906;45.194;5.684;2023-10-09T20:44:55;18.10;93.60
21489;DHT22;10906;45.194;5.684;2023-10-09T20:47:46;18.10;93.10
21489;DHT22;10906;45.194;5.684;2023-10-09T20:50:31;18.40;93.20
21489;DHT22;10906;45.194;5.684;2023-10-09T20:53:16;18.20;93.50
21489;DHT22;10906;45.194;5.684;2023-10-09T20:56:00;18.20;93.30
21489;DHT22;10906;45.194;5.684;2023-10-09T20:58:45;18.10;93.30
21489;DHT22;10906;45.194;5.684;2023-10-09T21:01:29;18.00;93.60
21489;DHT22;10906;45.194;5.684;2023-10-09T21:04:13;18.00;93.70
21489;DHT22;10906;45.194;5.684;2023-10-09T21:06:57;17.90;94.00
21489;DHT22;10906;45.194;5.684;2023-10-09T21:09:42;18.00;94.50
21489;DHT22;10906;45.194;5.684;2023-10-09T21:12:27;17.90;94.60
21489;DHT22;10906;45.194;5.684;2023-10-09T21:15:12;17.80;94.20
21489;DHT22;10906;45.194;5.684;2023-10-09T21:17:58;17.70;94.40
21489;DHT22;10906;45.194;5.684;2023-10-09T21:20:42;17.70;94.20
21489;DHT22;10906;45.194;5.684;2023-10-09T21:23:26;17.70;94.60
21489;DHT22;10906;45.194;5.684;2023-10-09T21:26:16;17.50;94.70
21489;DHT22;10906;45.194;5.684;2023-10-09T21:29:03;17.50;94.90
21489;DHT22;10906;45.194;5.684;2023-10-09T21:31:48;17.40;94.70
21489;DHT22;10906;45.194;5.684;2023-10-09T21:34:33;17.40;95.10
21489;DHT22;10906;45.194;5.684;2023-10-09T21:37:18;17.30;95.10
21489;DHT22;10906;45.194;5.684;2023-10-09T21:40:03;17.30;95.00
21489;DHT22;10906;45.194;5.684;2023-10-09T21:42:51;17.30;95.30
21489;DHT22;10906;45.194;5.684;2023-10-09T21:45:36;17.30;95.20
21489;DHT22;10906;45.194;5.684;2023-10-09T21:48:21;17.30;95.30
21489;DHT22;10906;45.194;5.684;2023-10-09T21:51:06;17.30;95.00
21489;DHT22;10906;45.194;5.684;2023-10-09T21:53:52;17.30;95.20
21489;DHT22;10906;45.194;5.684;2023-10-09T21:56:37;17.20;95.10
21489;DHT22;10906;45.194;5.684;2023-10-09T21:59:21;17.30;95.30
